Sheboygan, WI

12:00 PM CST on February 18, 2018 (GMT -0600)
Cooper School Area | | Change Station
Active Advisory: Winter Storm Watch

Elev 659 ft 43.77 °N, 87.73 °W | Updated 15 seconds ago

Clear
Clear
34.9 °F
Feels Like 35 °F
N
2.7
Wind Variable Wind from SSW
Gusts 4.9 mph

Today
High -- | Low -- °F
--% Chance of Precip.
Yesterday
High -- | Low -- °F
Precip. -- in
Pressure 30.18 in
Visibility 10.0 miles
Clouds Clear
Windchill 35 °F
Dew Point 12 °F
Humidity 39%
Rainfall 0.00 in
Snow Depth Not available.
6:45 AM 5:25 PM
Waxing Crescent, 8% visible
METAR KSBM 181753Z AUTO 17018G23KT 10SM CLR 01/M03 A3015 RMK AO2 SLP219 I6000 T00061033 10006 21100 58013 TSNO
Pressure 30.18 in
Visibility 10.0 miles
Clouds Clear
Windchill 35 °F
Dew Point 12 °F
Humidity 39%
Rainfall 0.00 in
Snow Depth Not available.
6:45 AM 5:25 PM
Waxing Crescent, 8% visible
METAR KSBM 181753Z AUTO 17018G23KT 10SM CLR 01/M03 A3015 RMK AO2 SLP219 I6000 T00061033 10006 21100 58013 TSNO

Get Your Daily Forecast Email!

Thanks for signing up!

Be on the lookout for a verification email in your inbox.

You'll start receiving severe weather alerts in your inbox..

×

10-Day Weather Forecast

Almanac

Astronomy

Feb. 18, 2018 Rise Set
Actual Time
Civil Twilight
Nautical Twilight
Astronomical Twilight
Moon
Length of Visible Light
Length of Day
Tomorrow will be .
, % of the Moon is Illuminated

Today's Extremes

State Highs State Lows

Community

WunderPhotos

Category 6

Welcome to Category 6. This is the collective home for Weather Underground's featured writeups by Dr. Jeff Masters (right), Bob Henson (left), Chris Burt, and other regular contributors.

Nearby

Air Quality

  Air Quality AQ Index Pollutant
Not available.

Snow Depth

Station Depth Elevation

Earthquake Activity

City Distance Mag. Time & Date
Minimum magnitude displayed is 2.5.

Coastal Water Temperatures

Place Temperature

Stations

Nearby Weather Stations

Station Location Temp. Windchill Dew Point Humidity Wind Precip. Elev Updated Type
                   

Watches & Warnings

Winter Storm Watch
Issued: 4:00 AM CST Feb. 18, 2018 – National Weather Service

... Winter Storm Watch in effect from Monday afternoon through
Tuesday afternoon...

* what... significant icing possible. Total ice accumulations of
one tenth to one half of an inch are possible, with highest
amounts toward central Wisconsin.

* Where... portions of east central and south central Wisconsin.

* When... from Monday afternoon through Tuesday afternoon.

* Additional details... power outages and tree damage are possible
due to the ice. Travel could be dangerous and nearly impossible,
including during the Monday afternoon and Tuesday morning
commutes.

Precautionary/preparedness actions...

A Winter Storm Watch means there is potential for significant
snow, sleet or ice accumulations that may impact travel. Continue
to monitor the latest forecasts.



Cronce